Poquonock, Connecticut
Current Conditions -  °F | °C
As of 5:51 AM on Wednesday 26 Nov 2014 (Local Time) from KBDL Reporting Station
Overcast Overcast  
Wind Chill: 38°   Ceiling: 9500
Heat Index: 43°   Visibility: 10mi
Dew Point: 28°   Wind: 9mph
Humidity: 56%   Direction: 350°N
Pressure: 30.16"   Gusts: NA
Location:  41.9°N, 72.68°W
Report Text: KBDL 261051Z 35008KT 10SM BKN095 OVC110 06/M02 A3016 RMK AO2 SLP215 T00611022
Loading
Personal Weather Stations






























Interactive Weather Map New forecast layout! Learn more

10-Day Weather Forecast

Advertisements
Track Severe Weather on mobile